Domov               UVHVVR             MKGP            O straneh              
ZDRAVSTVENO VARSTVO RASTLIN
  MREŽA AGROMET. POSTAJ
 ► PROGNOSTIČNA OBVESTILA
AGROMETEOROLOŠKI PODATKI -
ARSO
OBVLADOVANJE TVEGANJ ZARADI
NEUGODNIH VREMENSKIH RAZMER
  ► NARAVNE NESREČE
  ► SUŠA/MOČA
  ► NAMAKANJE
  ► ŽLED (gozdarstvo)
KARTOGRAFSKI PRIKAZI
SPLETNE POVEZAVE
PROJEKTI IN PUBLIKACIJE

AGROMETEOROLOŠKA MREŽA: VREMENSKE POSTAJE IN FENOLOŠKA OPAZOVANJA

Pregled podatkov za lokacijo Ritoznoj, meteorološka postaja 22211

Pregled senzorjev na lokaciji

ID Ime Zadnja
vrednost
Datum
zadnje
spremembe
Tip
senzorja
3160 Relativna vlaga 2 m (% RH) 99,93 % RH 25.6.2017 20:30 Generic 0 - 100 %
3161 Temperatura 2 m ( °C) 15,09 °C 25.6.2017 20:30 Generic -40 - +60 °C
3162 Omočenost lista (U) 10 U 25.6.2017 20:30 A730WET
3863 Padavine 0.2 mm (mm) 3,2 mm 25.6.2017 20:30 Generic 0.2 mm

Pregled podatkov zadnjih 24 ur

Zap.
št.
Datum in čas Ritoznoj
Omočenost
lista
Padavine
0.2
mm
Relativna
vlaga
2
m
Temperatura
2
m
0 25.6.2017 19:30 10 3,2 99,93 15,09
1 25.6.2017 19:00 10 19,8 99,93 16,48
2 25.6.2017 18:30 10 8,6 99,93 17,85
3 25.6.2017 18:00 1 3 99,1 20,15
4 25.6.2017 17:30 0 0 85,98 20,71
5 25.6.2017 17:00 0 0 83,59 21,15
6 25.6.2017 16:30 0 0 89,69 22,03
7 25.6.2017 16:00 0 0 78,1 23,2
8 25.6.2017 15:30 0 0 75,38 23,1
9 25.6.2017 15:00 1 0 81,81 21,71
10 25.6.2017 14:30 10 0 93,24 20,34
11 25.6.2017 14:00 10 0 93,02 18,56
12 25.6.2017 13:30 10 0,4 99,93 17,83
13 25.6.2017 13:00 10 5 98,78 19,54
14 25.6.2017 12:30 0 0 62 22,98
15 25.6.2017 12:00 0 0 59,44 24,03
16 25.6.2017 11:30 0 0 59,61 23,57
17 25.6.2017 11:00 2 0 63,98 22,81
18 25.6.2017 10:30 0 0 58,49 25,13
19 25.6.2017 10:00 0 0 55,29 24,03
20 25.6.2017 09:30 0 0 60,22 23,61
21 25.6.2017 09:00 0 0 55,9 23,79
22 25.6.2017 08:30 0 0 58,63 22,56
23 25.6.2017 08:00 0 0 64,66 22,34
24 25.6.2017 07:30 0 0 58,61 22,27
25 25.6.2017 07:00 0 0 64,13 20,46
26 25.6.2017 06:30 0 0 72,84 19,68
27 25.6.2017 06:00 0 0 69,69 21
28 25.6.2017 05:30 0 0 64,93 20,85
29 25.6.2017 05:00 0 0 65,93 20,12
30 25.6.2017 04:30 0 0 65,86 20,1
31 25.6.2017 04:00 0 0 65,81 21,05
32 25.6.2017 03:30 0 0 58,19 22,34
33 25.6.2017 03:00 0 0 52,75 23,39
34 25.6.2017 02:30 0 0 47,28 23,86
35 25.6.2017 02:00 0 0 45,4 24,62
36 25.6.2017 01:30 0 0 56,43 24,93
37 25.6.2017 01:00 0 0 61,98 23,64
38 25.6.2017 00:30 0 0 69,69 23,22
39 25.6.2017 00:00 0 0 67,35 23,71
40 24.6.2017 23:30 0 0 67,13 23,83
41 24.6.2017 23:00 0 0 65,37 24
42 24.6.2017 22:30 0 0 66,94 24,37
43 24.6.2017 22:00 0 0 62,71 24,84
44 24.6.2017 21:30 0 0 64,1 24,3
© 2011 Ministrstvo za kmetijstvo, gozdarstvo in prehrano. Vse pravice pridržane.